Time;durP1;ratioP1;P1;durP2;ratioP2;P2;SDS_P1;SDS_P2;PMS_P1;PMS_P2;Temp;Humidity;BMP_temperature;BMP_pressure;BME280_temperature;BME280_humidity;BME280_pressure;Samples;Min_cycle;Max_cycle;Signal;HPM_P1;HPM_P2
2023/12/08 05:03:15;;;;;;;24.95;11.82;;;;;;;-0.58;100.00;100728.25;6040439;27;20123;-87
2023/12/08 05:06:22;;;;;;;25.50;12.37;;;;;;;-0.50;100.00;100728.63;5368593;33;34586;-89
2023/12/08 05:09:25;;;;;;;25.37;12.48;;;;;;;-0.49;100.00;100729.47;5361482;33;34980;-90
2023/12/08 05:12:28;;;;;;;27.00;13.38;;;;;;;-0.43;100.00;100726.44;5346657;33;34983;-90
2023/12/08 05:15:32;;;;;;;23.30;11.60;;;;;;;-0.37;100.00;100730.47;5370653;33;35522;-93
2023/12/08 05:18:35;;;;;;;22.45;11.88;;;;;;;-0.24;100.00;100732.19;5372620;33;35405;-93
2023/12/08 05:21:38;;;;;;;24.15;11.02;;;;;;;-0.31;100.00;100733.56;5356961;33;34552;-91
2023/12/08 05:24:42;;;;;;;25.45;11.68;;;;;;;-0.31;100.00;100733.56;5365489;32;34838;-89
2023/12/08 05:27:45;;;;;;;26.75;12.52;;;;;;;-0.25;100.00;100732.31;5365772;33;35469;-90
2023/12/08 05:30:48;;;;;;;23.10;11.35;;;;;;;-0.27;100.00;100742.97;5356002;33;34906;-88
2023/12/08 05:33:51;;;;;;;24.67;11.60;;;;;;;-0.25;100.00;100749.03;5355800;33;34035;-88
2023/12/08 05:36:54;;;;;;;23.92;12.32;;;;;;;-0.33;100.00;100746.03;5367695;33;33605;-88
2023/12/08 05:39:57;;;;;;;20.55;11.05;;;;;;;-0.31;100.00;100751.25;5367542;33;33964;-88
2023/12/08 05:43:00;;;;;;;22.37;11.73;;;;;;;-0.47;100.00;100740.78;5380854;33;34061;-88
2023/12/08 05:46:04;;;;;;;27.02;13.07;;;;;;;-0.61;100.00;100751.41;5367748;33;34825;-88
2023/12/08 05:49:07;;;;;;;24.70;12.10;;;;;;;-0.71;100.00;100749.31;5380928;33;34122;-88
2023/12/08 05:52:11;;;;;;;25.15;12.32;;;;;;;-0.77;100.00;100754.16;5355805;33;34155;-90
2023/12/08 05:55:14;;;;;;;25.25;12.15;;;;;;;-0.89;100.00;100747.00;5380984;33;34611;-88
2023/12/08 05:58:16;;;;;;;22.62;11.40;;;;;;;-0.91;100.00;100747.06;5380585;33;34933;-87
2023/12/08 06:01:20;;;;;;;22.50;11.40;;;;;;;-0.98;100.00;100751.91;5367372;33;34615;-88
2023/12/08 06:04:24;;;;;;;27.48;12.37;;;;;;;-1.06;100.00;100754.16;5380138;33;33578;-88
2023/12/08 06:07:27;;;;;;;23.83;12.00;;;;;;;-1.17;100.00;100744.25;5355361;33;34113;-88
2023/12/08 06:10:31;;;;;;;24.65;11.80;;;;;;;-1.23;100.00;100749.94;5367138;33;34834;-88
2023/12/08 06:13:34;;;;;;;23.20;11.32;;;;;;;-1.29;100.00;100762.63;5380248;33;34038;-88
2023/12/08 06:16:37;;;;;;;22.70;11.93;;;;;;;-1.34;100.00;100752.37;5355038;33;34351;-88
2023/12/08 06:19:40;;;;;;;22.00;10.52;;;;;;;-1.41;100.00;100758.94;5356854;33;34297;-88
2023/12/08 06:22:43;;;;;;;22.30;10.63;;;;;;;-1.48;100.00;100763.75;5338498;33;33858;-88
2023/12/08 06:25:46;;;;;;;22.87;10.73;;;;;;;-1.43;100.00;100769.59;5353107;33;35267;-88
2023/12/08 06:28:49;;;;;;;22.85;11.27;;;;;;;-1.30;100.00;100766.22;5352843;33;34680;-88
2023/12/08 06:31:52;;;;;;;21.80;11.02;;;;;;;-1.25;100.00;100770.28;5342306;33;34118;-88
2023/12/08 06:34:56;;;;;;;24.80;11.70;;;;;;;-1.07;100.00;100770.13;5358569;33;34238;-88
2023/12/08 06:37:59;;;;;;;23.83;12.50;;;;;;;-0.99;100.00;100775.78;5362837;33;34639;-88
2023/12/08 06:41:02;;;;;;;27.02;12.40;;;;;;;-0.88;100.00;100769.81;5366417;33;34915;-88
2023/12/08 06:44:05;;;;;;;26.37;12.73;;;;;;;-0.85;100.00;100780.19;5381219;33;34000;-89
2023/12/08 06:47:08;;;;;;;25.70;12.77;;;;;;;-0.78;100.00;100782.37;5369836;33;33953;-88
2023/12/08 06:50:11;;;;;;;24.35;12.20;;;;;;;-0.73;100.00;100784.75;5368519;33;33721;-88
2023/12/08 06:53:14;;;;;;;29.67;13.23;;;;;;;-0.66;100.00;100785.22;5360528;33;34852;-88
2023/12/08 06:56:17;;;;;;;28.92;14.02;;;;;;;-0.56;100.00;100770.47;5335165;33;34924;-89
2023/12/08 06:59:20;;;;;;;26.77;13.18;;;;;;;-0.42;100.00;100781.00;5356544;33;34002;-88
2023/12/08 07:02:22;;;;;;;26.35;13.70;;;;;;;-0.38;100.00;100779.00;5347683;33;35259;-88
2023/12/08 07:05:25;;;;;;;28.15;13.23;;;;;;;-0.34;100.00;100775.25;5362796;33;34171;-88
2023/12/08 07:08:29;;;;;;;32.35;15.85;;;;;;;-0.26;100.00;100772.97;5354808;33;33847;-88
2023/12/08 07:11:33;;;;;;;32.58;14.48;;;;;;;-0.20;100.00;100783.16;5368636;33;33912;-89
2023/12/08 07:14:36;;;;;;;28.30;14.43;;;;;;;-0.21;100.00;100770.00;5364802;33;34475;-89
2023/12/08 07:17:39;;;;;;;30.35;13.25;;;;;;;-0.16;100.00;100773.22;5348229;33;34126;-89
2023/12/08 07:20:42;;;;;;;29.63;15.95;;;;;;;-0.17;100.00;100776.81;5349198;33;34572;-88
2023/12/08 07:23:46;;;;;;;27.40;13.52;;;;;;;-0.09;100.00;100785.97;5370374;33;34675;-89
2023/12/08 07:26:54;;;;;;;27.33;14.48;;;;;;;0.01;100.00;100791.50;5353962;33;33877;-89
2023/12/08 07:29:57;;;;;;;29.02;14.35;;;;;;;0.08;100.00;100797.22;5349881;33;34292;-88
2023/12/08 07:33:00;;;;;;;26.95;12.30;;;;;;;0.25;100.00;100799.63;5376073;33;33946;-89
2023/12/08 07:36:04;;;;;;;29.15;12.88;;;;;;;0.30;100.00;100802.81;5353214;33;34380;-90
2023/12/08 07:39:09;;;;;;;34.63;13.43;;;;;;;0.30;100.00;100801.97;5367315;33;34384;-92
2023/12/08 07:42:12;;;;;;;31.90;13.98;;;;;;;0.34;100.00;100800.81;5363908;33;33091;-90
2023/12/08 07:45:16;;;;;;;29.33;14.02;;;;;;;0.33;100.00;100796.47;5357185;33;33999;-89
2023/12/08 07:48:19;;;;;;;23.12;12.50;;;;;;;0.33;100.00;100786.72;5377039;33;34694;-89
2023/12/08 07:51:22;;;;;;;27.33;14.60;;;;;;;0.37;100.00;100782.06;5380343;33;35634;-88
2023/12/08 07:54:31;;;;;;;30.35;13.85;;;;;;;0.41;100.00;100778.25;5345167;33;34072;-89
2023/12/08 07:57:34;;;;;;;28.45;13.82;;;;;;;0.41;100.00;100776.47;5358209;33;34300;-89
2023/12/08 08:00:37;;;;;;;30.17;15.23;;;;;;;0.50;100.00;100779.44;5367978;33;34152;-89
2023/12/08 08:03:41;;;;;;;28.90;13.07;;;;;;;0.52;100.00;100777.53;5361222;33;34101;-89
2023/12/08 08:06:44;;;;;;;28.08;14.25;;;;;;;0.56;100.00;100779.87;5367900;33;33736;-89
2023/12/08 08:09:47;;;;;;;25.25;13.62;;;;;;;0.52;100.00;100785.47;5343247;33;35094;-89
2023/12/08 08:12:50;;;;;;;29.65;13.07;;;;;;;0.44;100.00;100788.66;5350624;33;34169;-89
2023/12/08 08:15:53;;;;;;;27.20;14.20;;;;;;;0.42;100.00;100783.44;5351050;33;34943;-89
2023/12/08 08:18:56;;;;;;;31.10;13.62;;;;;;;0.41;100.00;100783.53;5356049;33;35055;-89
2023/12/08 08:22:00;;;;;;;27.67;11.82;;;;;;;0.49;100.00;100791.84;5358889;33;33752;-88
2023/12/08 08:25:23;;;;;;;25.85;13.93;;;;;;;0.67;100.00;100805.63;5343843;33;34031;-88
2023/12/08 08:28:26;;;;;;;28.12;11.90;;;;;;;0.65;100.00;100794.31;5349269;33;34209;-91
2023/12/08 08:31:29;;;;;;;24.90;11.65;;;;;;;0.73;100.00;100799.06;5364839;33;33847;-88
2023/12/08 08:34:32;;;;;;;28.30;12.05;;;;;;;0.77;100.00;100793.47;5357725;33;34407;-89
2023/12/08 08:37:35;;;;;;;25.10;11.90;;;;;;;0.92;100.00;100788.91;5382871;33;35028;-88
2023/12/08 08:40:38;;;;;;;25.48;13.85;;;;;;;0.81;100.00;100776.41;5360242;33;34535;-87
2023/12/08 08:43:41;;;;;;;29.33;12.80;;;;;;;0.85;100.00;100793.81;5363495;33;34093;-87
2023/12/08 08:46:44;;;;;;;27.87;13.18;;;;;;;0.92;100.00;100790.72;5363366;33;33991;-88
2023/12/08 08:49:47;;;;;;;29.00;13.88;;;;;;;0.95;100.00;100791.34;5340451;33;33870;-87
2023/12/08 08:52:51;;;;;;;27.35;12.43;;;;;;;0.97;100.00;100793.91;5378675;33;34106;-88
2023/12/08 08:55:54;;;;;;;29.45;13.43;;;;;;;0.96;100.00;100789.53;5359182;33;33730;-89
2023/12/08 08:58:57;;;;;;;30.35;13.35;;;;;;;0.98;100.00;100774.41;5376733;33;34178;-88
2023/12/08 09:02:01;;;;;;;27.70;13.93;;;;;;;1.11;100.00;100772.56;5346786;33;34146;-88
2023/12/08 09:05:05;;;;;;;31.60;16.85;;;;;;;1.25;100.00;100753.03;5370512;33;34316;-88
2023/12/08 09:08:09;;;;;;;32.88;16.23;;;;;;;1.25;100.00;100747.75;5371266;33;33843;-87
2023/12/08 09:11:12;;;;;;;27.75;15.98;;;;;;;1.39;100.00;100752.06;5378330;33;34064;-89
2023/12/08 09:14:15;;;;;;;37.63;17.10;;;;;;;1.48;100.00;100786.75;5350469;33;34007;-88
2023/12/08 09:17:18;;;;;;;31.90;17.00;;;;;;;1.40;100.00;100789.09;5368176;33;34053;-88
2023/12/08 09:20:22;;;;;;;30.10;16.23;;;;;;;1.30;100.00;100780.09;5348652;33;34289;-88
2023/12/08 09:23:25;;;;;;;31.37;16.05;;;;;;;1.43;100.00;100788.03;5364971;33;34467;-88
2023/12/08 09:26:28;;;;;;;33.00;15.52;;;;;;;1.44;100.00;100795.03;5354825;33;35477;-88
2023/12/08 09:29:30;;;;;;;31.40;16.10;;;;;;;1.56;100.00;100783.56;5357179;33;35480;-88
2023/12/08 09:32:34;;;;;;;30.33;15.38;;;;;;;1.50;100.00;100773.38;5347719;33;33843;-89
2023/12/08 09:35:38;;;;;;;26.98;14.45;;;;;;;1.58;100.00;100771.88;5373808;33;35504;-91
2023/12/08 09:38:41;;;;;;;29.63;15.25;;;;;;;1.53;100.00;100784.62;5354462;33;34488;-93
2023/12/08 09:41:44;;;;;;;26.95;14.50;;;;;;;1.72;100.00;100772.66;5351934;33;34292;-93
2023/12/08 09:44:48;;;;;;;29.73;14.35;;;;;;;1.77;100.00;100765.22;5361960;33;33960;-89
2023/12/08 09:47:54;;;;;;;27.52;13.50;;;;;;;1.86;100.00;100761.06;5343837;33;33018;-89
2023/12/08 09:50:58;;;;;;;25.10;12.85;;;;;;;1.89;100.00;100760.81;5360515;33;34009;-88
2023/12/08 09:54:02;;;;;;;26.77;12.77;;;;;;;1.90;100.00;100755.41;5364529;33;34409;-89
2023/12/08 09:57:07;;;;;;;27.40;13.77;;;;;;;1.76;100.00;100756.41;5366699;33;33693;-89
2023/12/08 10:00:13;;;;;;;28.80;14.25;;;;;;;1.90;100.00;100746.56;5377676;33;34098;-89
2023/12/08 10:03:16;;;;;;;26.70;12.63;;;;;;;1.78;100.00;100743.00;5373454;33;34005;-89
2023/12/08 10:06:22;;;;;;;27.42;13.75;;;;;;;1.81;100.00;100740.12;5351325;33;33579;-88
2023/12/08 10:09:29;;;;;;;27.13;13.70;;;;;;;1.80;100.00;100733.97;5369484;33;33743;-88
2023/12/08 10:12:33;;;;;;;33.17;15.43;;;;;;;1.78;100.00;100738.59;5374289;33;34760;-88
2023/12/08 10:15:41;;;;;;;25.98;13.62;;;;;;;1.73;100.00;100737.22;5382889;33;34224;-88
2023/12/08 10:18:45;;;;;;;27.90;14.57;;;;;;;2.00;100.00;100732.53;5384984;33;34505;-88
2023/12/08 10:22:02;;;;;;;29.73;14.90;;;;;;;1.99;100.00;100736.16;5368392;33;35770;-88
2023/12/08 10:25:05;;;;;;;26.67;13.40;;;;;;;1.91;100.00;100730.56;5348420;33;34144;-88
2023/12/08 10:28:11;;;;;;;30.42;14.87;;;;;;;1.91;100.00;100730.56;5348953;33;33712;-88
2023/12/08 10:31:13;;;;;;;28.00;15.50;;;;;;;1.96;100.00;100711.59;5361260;33;33866;-88
2023/12/08 10:34:17;;;;;;;29.15;14.77;;;;;;;1.96;100.00;100709.81;5352542;33;34127;-88
2023/12/08 10:37:20;;;;;;;32.63;16.75;;;;;;;2.13;100.00;100719.16;5353136;33;34352;-88
2023/12/08 10:40:22;;;;;;;29.63;16.50;;;;;;;2.13;100.00;100723.62;5351903;33;34096;-89
2023/12/08 10:43:25;;;;;;;31.00;17.05;;;;;;;2.14;100.00;100723.53;5350479;33;34212;-89
2023/12/08 10:46:31;;;;;;;27.35;14.98;;;;;;;2.07;100.00;100722.28;5363343;33;34318;-88
2023/12/08 10:49:37;;;;;;;29.77;15.00;;;;;;;2.20;100.00;100716.91;5349253;33;34059;-89
2023/12/08 10:52:41;;;;;;;26.67;15.30;;;;;;;2.20;100.00;100717.75;5373700;33;34462;-88
2023/12/08 10:56:03;;;;;;;25.02;14.95;;;;;;;2.27;100.00;100716.31;5370210;33;33974;-88
2023/12/08 10:59:09;;;;;;;26.45;14.40;;;;;;;2.31;100.00;100719.59;5363728;33;34167;-88
2023/12/08 11:02:23;;;;;;;40.00;18.02;;;;;;;2.31;100.00;100710.75;5351655;33;34346;-89
2023/12/08 11:05:37;;;;;;;29.37;15.90;;;;;;;2.40;100.00;100700.31;5370302;33;34207;-89
2023/12/08 11:08:48;;;;;;;32.28;16.98;;;;;;;2.33;100.00;100698.22;5376399;33;34969;-89
2023/12/08 11:12:02;;;;;;;29.35;15.80;;;;;;;2.38;100.00;100690.75;5376213;33;35524;-89
2023/12/08 11:15:09;;;;;;;31.23;17.00;;;;;;;2.30;100.00;100693.97;5364953;33;35578;-89
2023/12/08 11:18:26;;;;;;;30.08;16.55;;;;;;;2.31;100.00;100684.19;5353378;33;35373;-88
2023/12/08 11:21:29;;;;;;;28.92;16.62;;;;;;;2.30;100.00;100693.97;5365457;33;35627;-89
2023/12/08 11:24:33;;;;;;;33.53;16.55;;;;;;;2.25;100.00;100693.47;5365047;33;34126;-89
2023/12/08 11:27:43;;;;;;;28.45;17.00;;;;;;;2.22;100.00;100685.75;5377458;33;35468;-89
2023/12/08 11:30:56;;;;;;;32.90;15.35;;;;;;;2.25;100.00;100696.12;5376138;33;34502;-89
2023/12/08 11:34:11;;;;;;;34.50;17.77;;;;;;;2.24;100.00;100686.47;5362094;33;34062;-89
2023/12/08 11:37:16;;;;;;;30.58;16.12;;;;;;;2.21;100.00;100676.09;5375253;33;35581;-89
2023/12/08 11:40:19;;;;;;;31.12;16.23;;;;;;;2.16;100.00;100675.59;5363783;33;37043;-89
2023/12/08 11:43:23;;;;;;;30.50;17.75;;;;;;;2.14;100.00;100673.06;5364531;33;34516;-89
2023/12/08 11:46:27;;;;;;;27.37;15.75;;;;;;;2.18;100.00;100660.41;5376822;33;34531;-88
2023/12/08 11:49:30;;;;;;;30.80;15.07;;;;;;;2.21;100.00;100665.47;5377967;33;35338;-89
2023/12/08 11:52:35;;;;;;;34.15;17.35;;;;;;;1.95;100.00;100673.59;5351890;33;35480;-88
2023/12/08 11:55:41;;;;;;;31.02;16.73;;;;;;;1.89;100.00;100667.91;5434836;27;34146;-88
2023/12/08 11:58:59;;;;;;;27.60;16.20;;;;;;;1.83;100.00;100668.38;5454107;27;35581;-84
2023/12/08 12:02:03;;;;;;;33.97;17.60;;;;;;;1.99;100.00;100659.12;5319536;33;35233;-89
2023/12/08 12:05:08;;;;;;;34.92;16.87;;;;;;;1.84;100.00;100657.63;5287057;33;35446;-92
2023/12/08 12:08:14;;;;;;;34.90;16.52;;;;;;;1.86;100.00;100668.97;5283770;33;34468;-93
2023/12/08 12:11:22;;;;;;;29.23;15.07;;;;;;;1.76;100.00;100660.87;5296131;33;34222;-88
2023/12/08 12:14:42;;;;;;;29.67;14.60;;;;;;;1.90;100.00;100666.94;5316812;33;34130;-89
2023/12/08 12:17:51;;;;;;;28.62;14.00;;;;;;;1.93;100.00;100667.56;5305240;33;33913;-89
2023/12/08 12:20:55;;;;;;;28.75;15.07;;;;;;;1.85;100.00;100675.25;5302480;33;34560;-89
2023/12/08 12:23:58;;;;;;;30.30;14.27;;;;;;;1.79;100.00;100665.09;5319936;33;34278;-88
2023/12/08 12:27:01;;;;;;;25.73;13.95;;;;;;;1.87;100.00;100662.69;5319220;33;34114;-89
2023/12/08 12:30:06;;;;;;;27.05;15.00;;;;;;;1.75;100.00;100666.28;5317665;33;33742;-89
2023/12/08 12:33:10;;;;;;;34.28;16.00;;;;;;;1.75;100.00;100667.09;5324999;33;34870;-88
2023/12/08 12:36:13;;;;;;;30.98;15.15;;;;;;;1.85;100.00;100675.25;5325001;33;34127;-89
2023/12/08 12:39:17;;;;;;;29.58;14.80;;;;;;;1.74;100.00;100680.50;5312881;33;33589;-89
2023/12/08 12:42:20;;;;;;;25.88;13.07;;;;;;;1.73;100.00;100679.66;5331786;33;34960;-88
2023/12/08 12:45:30;;;;;;;29.50;13.55;;;;;;;1.62;100.00;100670.81;5304870;33;34423;-88
2023/12/08 12:48:34;;;;;;;28.33;14.70;;;;;;;1.56;100.00;100669.44;5345312;33;34042;-89
2023/12/08 12:51:38;;;;;;;29.65;14.55;;;;;;;1.69;100.00;100664.91;5319364;33;35497;-89
2023/12/08 12:54:42;;;;;;;28.77;15.15;;;;;;;1.62;100.00;100660.19;5309807;33;34488;-89
2023/12/08 12:57:48;;;;;;;31.85;13.65;;;;;;;1.69;100.00;100648.16;5317256;33;33220;-88
2023/12/08 13:00:51;;;;;;;33.70;13.73;;;;;;;1.71;100.00;100646.25;5314695;33;34835;-88
2023/12/08 13:03:55;;;;;;;31.02;14.43;;;;;;;1.66;100.00;100648.38;5317942;33;32687;-88
2023/12/08 13:07:11;;;;;;;32.85;14.32;;;;;;;1.64;100.00;100647.63;5323851;33;35151;-88
2023/12/08 13:10:14;;;;;;;31.35;15.02;;;;;;;1.57;100.00;100652.56;5323419;33;34022;-88
2023/12/08 13:13:18;;;;;;;29.30;14.48;;;;;;;1.54;100.00;100656.28;5318531;33;34077;-88
2023/12/08 13:16:21;;;;;;;33.67;14.07;;;;;;;1.30;100.00;100650.13;5321674;33;33967;-88
2023/12/08 13:19:24;;;;;;;29.80;15.18;;;;;;;1.32;100.00;100645.56;5317836;33;34355;-88
2023/12/08 13:22:27;;;;;;;28.20;14.45;;;;;;;1.26;100.00;100646.84;5310225;33;34203;-89
2023/12/08 13:25:32;;;;;;;32.67;16.80;;;;;;;1.28;100.00;100642.28;5305125;33;33952;-88
2023/12/08 13:28:35;;;;;;;34.95;14.90;;;;;;;1.33;100.00;100653.41;5323294;33;33536;-88
2023/12/08 13:31:39;;;;;;;33.22;15.75;;;;;;;1.33;100.00;100649.91;5323010;33;34859;-89
2023/12/08 13:34:42;;;;;;;34.72;15.88;;;;;;;1.31;100.00;100649.16;5313420;33;34218;-90
2023/12/08 13:37:46;;;;;;;35.22;15.25;;;;;;;1.39;100.00;100652.09;5329340;33;34178;-92
2023/12/08 13:40:51;;;;;;;35.28;15.68;;;;;;;1.30;100.00;100645.66;5327858;33;34586;-92
2023/12/08 13:43:55;;;;;;;37.88;15.65;;;;;;;1.29;100.00;100641.34;5315568;33;34612;-89
2023/12/08 13:46:57;;;;;;;34.10;15.25;;;;;;;1.19;100.00;100644.75;5314780;33;34125;-88
2023/12/08 13:50:01;;;;;;;38.05;15.23;;;;;;;1.23;100.00;100638.25;5326247;33;34287;-89
2023/12/08 13:53:04;;;;;;;30.50;13.93;;;;;;;1.11;100.00;100638.22;5326710;33;34824;-89
2023/12/08 13:56:07;;;;;;;31.77;15.00;;;;;;;1.04;100.00;100638.75;5314644;33;34202;-88
2023/12/08 13:59:10;;;;;;;37.60;15.43;;;;;;;1.06;100.00;100650.94;5294879;33;35462;-89
2023/12/08 14:02:14;;;;;;;33.78;16.00;;;;;;;0.98;100.00;100640.03;5294895;33;35246;-88
2023/12/08 14:05:17;;;;;;;38.05;15.02;;;;;;;0.98;100.00;100645.34;5285136;33;33857;-88
2023/12/08 14:08:20;;;;;;;34.80;15.10;;;;;;;1.11;100.00;100648.81;5297292;33;34443;-88
2023/12/08 14:11:25;;;;;;;37.15;15.93;;;;;;;1.07;100.00;100649.97;5309971;33;33964;-88
2023/12/08 14:14:28;;;;;;;36.47;16.58;;;;;;;1.11;100.00;100640.00;5296180;33;35173;-88
2023/12/08 14:17:31;;;;;;;39.20;18.30;;;;;;;1.02;100.00;100641.50;5295611;33;34954;-89
2023/12/08 14:20:35;;;;;;;37.80;17.02;;;;;;;0.95;100.00;100642.91;5308288;33;34142;-88
2023/12/08 14:23:41;;;;;;;38.63;17.05;;;;;;;0.92;100.00;100645.78;5296195;33;34275;-88
2023/12/08 14:26:44;;;;;;;34.60;16.08;;;;;;;0.88;100.00;100644.31;5307793;33;33882;-88
2023/12/08 14:29:48;;;;;;;43.10;17.62;;;;;;;0.96;100.00;100643.75;5309873;33;34683;-88
2023/12/08 14:32:51;;;;;;;35.88;16.80;;;;;;;0.86;100.00;100635.62;5307098;33;34474;-88
2023/12/08 14:35:55;;;;;;;31.02;15.05;;;;;;;0.88;100.00;100634.56;5313494;33;34957;-88
2023/12/08 14:38:58;;;;;;;37.13;16.85;;;;;;;0.85;100.00;100636.59;5301758;33;35061;-88
2023/12/08 14:42:01;;;;;;;39.65;16.58;;;;;;;0.83;100.00;100638.50;5323103;33;35294;-88
2023/12/08 14:45:04;;;;;;;37.45;17.40;;;;;;;0.83;100.00;100644.63;5312491;33;34303;-88
2023/12/08 14:48:08;;;;;;;36.70;15.60;;;;;;;0.80;100.00;100644.00;5311347;33;34899;-88
2023/12/08 14:51:21;;;;;;;44.45;16.00;;;;;;;0.76;100.00;100648.69;5307547;33;33991;-88
2023/12/08 14:54:25;;;;;;;35.25;16.70;;;;;;;0.73;100.00;100654.16;5307471;33;33672;-88
2023/12/08 14:57:37;;;;;;;40.08;16.58;;;;;;;0.73;100.00;100663.94;5300673;33;33724;-88
2023/12/08 15:00:41;;;;;;;40.90;17.70;;;;;;;0.81;100.00;100662.44;5312473;33;35057;-88
2023/12/08 15:03:44;;;;;;;36.20;16.70;;;;;;;0.73;100.00;100674.53;5316602;33;33678;-88
2023/12/08 15:06:48;;;;;;;35.03;15.85;;;;;;;0.67;100.00;100694.34;5328564;33;34172;-88
2023/12/08 15:09:51;;;;;;;37.38;16.23;;;;;;;0.68;100.00;100704.00;5324425;33;34091;-88
2023/12/08 15:12:54;;;;;;;40.38;17.00;;;;;;;0.83;100.00;100699.44;5312218;33;34046;-88
2023/12/08 15:15:57;;;;;;;37.15;15.95;;;;;;;0.81;100.00;100693.41;5312477;33;33985;-88
2023/12/08 15:19:00;;;;;;;36.60;16.60;;;;;;;0.72;100.00;100688.75;5328100;33;33695;-88
2023/12/08 15:22:03;;;;;;;38.22;17.08;;;;;;;0.74;100.00;100686.84;5311157;33;151267;-89
2023/12/08 15:25:07;;;;;;;40.17;16.95;;;;;;;0.74;100.00;100684.19;5327649;33;35695;-89
2023/12/08 15:28:11;;;;;;;37.88;17.15;;;;;;;0.72;100.00;100686.09;5323039;33;34005;-89
2023/12/08 15:31:15;;;;;;;43.17;17.85;;;;;;;0.73;100.00;100690.44;5323565;33;33951;-89
2023/12/08 15:34:18;;;;;;;35.78;17.42;;;;;;;0.72;100.00;100688.75;5308744;33;33616;-90
2023/12/08 15:37:21;;;;;;;32.10;16.37;;;;;;;0.80;100.00;100689.91;5310096;33;32339;-89
2023/12/08 15:40:24;;;;;;;32.03;16.70;;;;;;;0.71;100.00;100695.84;5310349;33;34850;-89
2023/12/08 15:43:27;;;;;;;34.92;16.70;;;;;;;0.75;100.00;100691.19;5299469;33;34541;-89
2023/12/08 15:46:30;;;;;;;33.83;14.73;;;;;;;0.72;100.00;100691.41;5323295;33;33684;-89
2023/12/08 15:49:35;;;;;;;38.20;15.77;;;;;;;0.79;100.00;100690.00;5311152;33;34091;-89
2023/12/08 15:52:38;;;;;;;42.40;17.17;;;;;;;0.74;100.00;100692.16;5314009;33;34006;-89
2023/12/08 15:55:41;;;;;;;37.53;17.52;;;;;;;0.78;100.00;100704.22;5314101;33;34079;-89
2023/12/08 15:58:44;;;;;;;37.17;15.80;;;;;;;0.77;100.00;100684.81;5326716;33;33696;-89
2023/12/08 16:01:47;;;;;;;32.72;15.13;;;;;;;0.80;100.00;100689.91;5313979;33;33956;-89
2023/12/08 16:04:50;;;;;;;33.15;16.73;;;;;;;0.72;100.00;100696.69;5313104;33;33740;-89
2023/12/08 16:07:53;;;;;;;35.63;15.60;;;;;;;0.78;100.00;100696.25;5325139;33;33843;-89
2023/12/08 16:10:56;;;;;;;34.95;15.50;;;;;;;0.77;100.00;100698.06;5326992;33;34127;-89
2023/12/08 16:14:02;;;;;;;34.72;15.15;;;;;;;0.75;100.00;100696.47;5316723;33;35226;-89
2023/12/08 16:17:05;;;;;;;35.92;16.67;;;;;;;0.76;100.00;100692.84;5316536;33;33729;-89
2023/12/08 16:20:08;;;;;;;31.98;14.85;;;;;;;0.74;100.00;100700.94;5332027;33;33900;-89
2023/12/08 16:23:11;;;;;;;31.95;15.13;;;;;;;0.79;100.00;100693.50;5313694;33;34075;-89
2023/12/08 16:26:15;;;;;;;27.02;13.65;;;;;;;0.83;100.00;100700.28;5320748;33;34027;-89
2023/12/08 16:29:18;;;;;;;33.50;14.15;;;;;;;0.81;100.00;100704.84;5313936;33;33798;-89
2023/12/08 16:32:21;;;;;;;30.67;15.20;;;;;;;0.71;100.00;100702.97;5318672;33;34165;-89
2023/12/08 16:35:24;;;;;;;28.48;15.18;;;;;;;0.73;100.00;100703.69;5305501;33;34008;-89
2023/12/08 16:38:27;;;;;;;27.70;13.80;;;;;;;0.69;100.00;100700.41;5319361;33;33937;-89
2023/12/08 16:41:31;;;;;;;36.53;15.65;;;;;;;0.60;100.00;100696.59;5329997;33;34777;-89
2023/12/08 16:44:34;;;;;;;30.33;14.82;;;;;;;0.69;100.00;100700.41;5314248;33;34649;-89
2023/12/08 16:47:37;;;;;;;31.23;13.52;;;;;;;0.67;100.00;100694.34;5303658;33;33964;-89
2023/12/08 16:50:40;;;;;;;32.17;13.77;;;;;;;0.55;100.00;100698.69;5313493;33;34445;-89
2023/12/08 16:53:43;;;;;;;23.05;12.37;;;;;;;0.76;100.00;100706.12;5302453;33;34090;-88
2023/12/08 16:56:46;;;;;;;23.42;12.13;;;;;;;0.70;100.00;100699.44;5325359;33;34103;-89
2023/12/08 16:59:51;;;;;;;22.45;10.68;;;;;;;0.60;100.00;100712.47;5322630;33;35123;-88
2023/12/08 17:02:54;;;;;;;20.25;10.50;;;;;;;0.54;100.00;100720.84;5313943;33;34850;-89
